createdAt,value
2024-04-30T00:00:04.750Z,49.99
2024-04-30T00:01:04.756Z,50.36
2024-04-30T00:02:04.503Z,52.15
2024-04-30T00:03:04.362Z,51.14
2024-04-30T00:04:04.337Z,50.98
2024-04-30T00:05:04.185Z,50.93
2024-04-30T00:06:04.008Z,51.86
2024-04-30T00:07:03.971Z,51.89
2024-04-30T00:08:03.771Z,50.68
2024-04-30T00:09:03.668Z,50.67
2024-04-30T00:10:03.517Z,51.20
2024-04-30T00:11:03.434Z,50.00
2024-04-30T00:12:03.269Z,52.96
2024-04-30T00:13:03.248Z,55.61
2024-04-30T00:14:03.038Z,55.62
2024-04-30T00:15:02.966Z,55.74
2024-04-30T00:16:02.829Z,60.18
2024-04-30T00:17:02.698Z,60.36
2024-04-30T00:18:02.635Z,64.29
2024-04-30T00:19:02.524Z,66.16
2024-04-30T00:20:02.521Z,67.52
2024-04-30T00:21:02.182Z,67.12
2024-04-30T00:22:02.086Z,68.60
2024-04-30T00:23:01.955Z,68.39
2024-04-30T00:24:01.813Z,71.05
2024-04-30T00:25:01.753Z,71.24
2024-04-30T00:26:01.601Z,72.20
2024-04-30T00:27:01.466Z,71.52
2024-04-30T00:28:01.432Z,68.54
2024-04-30T00:29:01.212Z,70.57
2024-04-30T00:30:01.104Z,68.38
2024-04-30T00:31:01.009Z,68.57
2024-04-30T00:32:00.909Z,70.10
2024-04-30T00:33:00.775Z,65.09
2024-04-30T00:34:00.751Z,68.72
2024-04-30T00:35:00.532Z,67.24
2024-04-30T00:36:00.477Z,67.47
2024-04-30T00:37:00.277Z,68.18
2024-04-30T00:38:00.217Z,67.92
2024-04-30T00:39:00.073Z,67.05
2024-04-30T00:39:59.946Z,67.11
2024-04-30T00:40:59.875Z,67.89
2024-04-30T00:41:59.675Z,65.12
2024-04-30T00:42:59.570Z,64.22
2024-04-30T00:43:59.463Z,62.16
2024-04-30T00:44:59.366Z,62.27
2024-04-30T00:45:59.276Z,62.99
2024-04-30T00:46:59.145Z,65.76
2024-04-30T00:47:59.172Z,65.25
2024-04-30T00:48:59.037Z,66.41
2024-04-30T00:49:58.781Z,65.09
2024-04-30T00:50:58.665Z,68.43
2024-04-30T00:51:58.576Z,68.82
2024-04-30T00:52:58.422Z,68.29
2024-04-30T00:53:58.298Z,69.98
2024-04-30T00:54:58.227Z,68.52
2024-04-30T00:55:58.072Z,69.66
2024-04-30T00:56:57.963Z,68.47
2024-04-30T00:57:57.921Z,69.15
2024-04-30T00:58:57.733Z,68.69
2024-04-30T00:59:57.604Z,68.72
2024-04-30T01:00:57.545Z,66.35
2024-04-30T01:01:57.392Z,65.68
2024-04-30T01:02:57.357Z,61.66
2024-04-30T01:03:57.169Z,61.65
2024-04-30T01:04:57.067Z,59.49
2024-04-30T01:05:56.945Z,58.28
2024-04-30T01:06:57.004Z,57.07
2024-04-30T01:07:56.699Z,56.26
2024-04-30T01:08:56.569Z,55.69
2024-04-30T01:09:56.587Z,55.39
2024-04-30T01:10:56.305Z,57.47
2024-04-30T01:11:56.239Z,56.75
2024-04-30T01:12:56.081Z,57.29
2024-04-30T01:13:55.940Z,56.40
2024-04-30T01:14:55.811Z,57.13
2024-04-30T01:15:55.703Z,55.89
2024-04-30T01:16:55.598Z,53.46
2024-04-30T01:17:55.510Z,54.03
2024-04-30T01:18:55.380Z,53.22
2024-04-30T01:19:55.249Z,50.28
2024-04-30T01:20:55.130Z,51.11
2024-04-30T01:21:55.010Z,52.56
2024-04-30T01:22:54.880Z,53.27
2024-04-30T01:23:54.759Z,53.19
2024-04-30T01:24:54.632Z,50.73
2024-04-30T01:25:54.512Z,49.60
2024-04-30T01:26:56.245Z,50.74
2024-04-30T01:27:54.251Z,51.90
2024-04-30T01:28:54.094Z,51.50
2024-04-30T01:29:53.944Z,53.26
2024-04-30T01:30:53.806Z,53.54
2024-04-30T01:31:53.669Z,54.90
2024-04-30T01:32:53.587Z,57.22
2024-04-30T01:34:00.989Z,50.00
2024-04-30T01:35:00.975Z,50.00
2024-04-30T01:36:01.022Z,50.00
2024-04-30T01:37:01.050Z,50.00
2024-04-30T01:38:00.966Z,50.00
2024-04-30T01:39:00.962Z,52.58
2024-04-30T01:40:01.035Z,52.29
2024-04-30T01:41:00.964Z,52.37
2024-04-30T01:42:01.019Z,50.00
2024-04-30T01:43:01.058Z,51.04
2024-04-30T01:44:00.977Z,50.00
2024-04-30T01:45:01.007Z,50.15
2024-04-30T01:46:01.025Z,51.35
2024-04-30T01:47:00.969Z,51.94
2024-04-30T01:48:01.172Z,50.99
2024-04-30T01:49:01.031Z,52.70
2024-04-30T01:50:00.972Z,50.00
2024-04-30T01:51:00.982Z,50.11
2024-04-30T01:52:01.062Z,53.98
2024-04-30T01:53:00.961Z,53.64
2024-04-30T01:54:00.970Z,51.95
2024-04-30T01:55:01.174Z,51.07
2024-04-30T01:56:00.991Z,49.57
2024-04-30T01:57:01.036Z,50.32
2024-04-30T01:58:01.150Z,52.75
2024-04-30T01:59:01.016Z,50.60
2024-04-30T02:00:01.068Z,52.58
2024-04-30T02:01:01.073Z,52.29
2024-04-30T02:02:01.102Z,54.12
2024-04-30T02:03:01.079Z,55.05
2024-04-30T02:04:01.067Z,56.21
2024-04-30T02:05:07.786Z,53.12
2024-04-30T02:06:01.974Z,53.15
2024-04-30T02:07:01.078Z,53.06
2024-04-30T02:08:01.067Z,53.36
2024-04-30T02:09:01.064Z,53.25
2024-04-30T02:10:01.095Z,54.78
2024-04-30T02:11:01.107Z,52.55
2024-04-30T02:12:00.968Z,54.61
2024-04-30T02:13:01.050Z,56.26
2024-04-30T02:14:00.961Z,55.82
2024-04-30T02:15:00.966Z,53.80
2024-04-30T02:16:00.983Z,53.24
2024-04-30T02:17:01.008Z,50.91
2024-04-30T02:18:01.002Z,51.78
2024-04-30T02:19:00.987Z,51.92
2024-04-30T02:20:00.972Z,52.58
2024-04-30T02:21:00.978Z,51.69
2024-04-30T02:22:01.009Z,57.17
2024-04-30T02:23:01.002Z,58.84
2024-04-30T02:24:00.989Z,64.05
2024-04-30T02:25:01.105Z,69.84
2024-04-30T02:26:00.984Z,73.96
2024-04-30T02:27:00.990Z,76.79
2024-04-30T02:28:01.015Z,78.55
2024-04-30T02:29:01.006Z,80.31
2024-04-30T02:30:01.115Z,76.71
2024-04-30T02:31:01.124Z,76.20
2024-04-30T02:32:01.057Z,74.76
2024-04-30T02:33:01.356Z,75.40
2024-04-30T02:34:01.280Z,76.80
2024-04-30T02:35:01.245Z,75.34
2024-04-30T02:36:01.335Z,76.78
2024-04-30T02:37:01.422Z,76.31
2024-04-30T02:38:01.328Z,76.48
2024-04-30T02:39:01.351Z,77.43
2024-04-30T02:40:01.602Z,75.26
2024-04-30T02:41:01.388Z,75.25
2024-04-30T02:42:01.410Z,77.69
2024-04-30T02:43:01.524Z,77.18
2024-04-30T02:44:01.497Z,75.64
2024-04-30T02:45:01.548Z,75.85
2024-04-30T02:46:01.639Z,75.91
2024-04-30T02:47:01.710Z,77.49
2024-04-30T02:48:01.798Z,75.42
2024-04-30T02:49:01.695Z,74.32
2024-04-30T02:50:01.682Z,73.23
2024-04-30T02:51:01.694Z,73.35
2024-04-30T02:52:01.743Z,73.76
2024-04-30T02:53:01.767Z,74.69
2024-04-30T02:54:01.761Z,75.65
2024-04-30T02:55:01.769Z,74.87
2024-04-30T02:56:01.730Z,74.71
2024-04-30T02:57:01.749Z,75.18
2024-04-30T02:58:01.786Z,74.68
2024-04-30T02:59:01.763Z,74.22
2024-04-30T03:00:01.895Z,75.03
2024-04-30T03:01:01.906Z,75.94
2024-04-30T03:02:01.806Z,75.15
2024-04-30T03:03:01.817Z,73.15
2024-04-30T03:04:02.016Z,75.29
2024-04-30T03:05:01.849Z,74.57
2024-04-30T03:06:01.849Z,76.78
2024-04-30T03:07:01.877Z,73.93
2024-04-30T03:08:01.868Z,74.35
2024-04-30T03:09:01.890Z,74.64
2024-04-30T03:10:01.929Z,74.30
2024-04-30T03:11:01.915Z,76.80
2024-04-30T03:12:01.900Z,76.89
2024-04-30T03:13:01.967Z,80.56
2024-04-30T03:14:01.899Z,79.83
2024-04-30T03:15:01.912Z,78.79
2024-04-30T03:16:01.933Z,81.37
2024-04-30T03:17:01.927Z,79.46
2024-04-30T03:18:02.016Z,80.60
2024-04-30T03:19:01.941Z,82.06
2024-04-30T03:20:01.935Z,80.27
2024-04-30T03:21:01.964Z,81.36
2024-04-30T03:22:02.052Z,81.53
2024-04-30T03:23:02.074Z,79.06
2024-04-30T03:24:02.125Z,79.54
2024-04-30T03:25:02.255Z,78.84
2024-04-30T03:26:02.205Z,79.15
2024-04-30T03:27:02.256Z,79.16
2024-04-30T03:28:03.317Z,80.36
2024-04-30T03:29:02.333Z,80.67
2024-04-30T03:30:02.506Z,78.80
2024-04-30T03:31:02.446Z,79.90
2024-04-30T03:32:02.479Z,79.82
2024-04-30T03:33:02.761Z,77.09
2024-04-30T03:34:02.609Z,77.70
2024-04-30T03:35:02.636Z,79.76
2024-04-30T03:36:02.704Z,78.75
2024-04-30T03:37:02.787Z,78.88
2024-04-30T03:38:02.776Z,80.25
2024-04-30T03:39:02.778Z,80.47
2024-04-30T03:40:02.838Z,80.32
2024-04-30T03:41:02.799Z,80.50
2024-04-30T03:42:02.817Z,78.97
2024-04-30T03:43:02.835Z,81.89
2024-04-30T03:44:02.832Z,85.42
2024-04-30T03:45:02.836Z,80.91
2024-04-30T03:46:02.868Z,83.41
2024-04-30T03:47:02.861Z,86.31
2024-04-30T03:48:02.914Z,84.99
2024-04-30T03:49:03.014Z,83.69
2024-04-30T03:50:03.102Z,84.19
2024-04-30T03:51:03.016Z,83.83
2024-04-30T03:52:03.054Z,85.64
2024-04-30T03:53:03.050Z,85.78
2024-04-30T03:54:03.060Z,86.82
2024-04-30T03:55:03.109Z,91.60
2024-04-30T03:56:03.084Z,91.41
2024-04-30T03:57:03.089Z,90.12
2024-04-30T03:58:03.121Z,88.17
2024-04-30T03:59:03.146Z,90.20
2024-04-30T04:00:03.130Z,89.24
2024-04-30T04:01:03.311Z,87.05
2024-04-30T04:02:03.144Z,87.93
2024-04-30T04:03:03.359Z,87.98
2024-04-30T04:04:03.245Z,88.98
2024-04-30T04:05:03.291Z,89.51
2024-04-30T04:06:03.199Z,88.29
2024-04-30T04:07:03.244Z,88.54
2024-04-30T04:08:03.210Z,89.67
2024-04-30T04:09:03.216Z,91.07
2024-04-30T04:10:03.288Z,90.65
2024-04-30T04:11:03.242Z,91.67
2024-04-30T04:12:03.256Z,93.53
2024-04-30T04:13:03.287Z,95.26
2024-04-30T04:14:03.277Z,96.81
2024-04-30T04:15:03.320Z,99.49
2024-04-30T04:16:03.306Z,97.20
2024-04-30T04:17:03.312Z,96.31
2024-04-30T04:18:03.360Z,95.16
2024-04-30T04:19:03.366Z,94.18
2024-04-30T04:20:03.343Z,95.24
2024-04-30T04:21:03.360Z,94.83
2024-04-30T04:22:03.400Z,92.22
2024-04-30T04:23:03.381Z,93.90
2024-04-30T04:24:03.395Z,90.25
2024-04-30T04:25:03.437Z,91.46
2024-04-30T04:26:03.478Z,93.82
2024-04-30T04:27:03.426Z,95.12
2024-04-30T04:28:03.452Z,94.41
2024-04-30T04:29:03.441Z,96.33
2024-04-30T04:30:03.495Z,99.89
2024-04-30T04:31:03.544Z,100.07
2024-04-30T04:32:03.630Z,102.24
2024-04-30T04:33:10.905Z,50.00
2024-04-30T04:34:10.861Z,50.00
2024-04-30T04:35:10.869Z,50.00
2024-04-30T04:36:10.845Z,50.00
2024-04-30T04:37:10.847Z,50.00
2024-04-30T04:38:10.839Z,50.78
2024-04-30T04:39:10.843Z,53.31
2024-04-30T04:40:10.889Z,51.65
2024-04-30T04:41:10.828Z,50.93
2024-04-30T04:42:10.833Z,50.75
2024-04-30T04:43:10.848Z,52.36
2024-04-30T04:44:10.836Z,52.53
2024-04-30T04:45:10.814Z,56.43
2024-04-30T04:46:10.804Z,57.28
2024-04-30T04:47:10.814Z,60.31
2024-04-30T04:48:10.880Z,63.79
2024-04-30T04:49:10.872Z,67.78
2024-04-30T04:50:10.805Z,66.06
2024-04-30T04:51:10.789Z,63.37
2024-04-30T04:52:10.800Z,61.50
2024-04-30T04:53:10.786Z,59.52
2024-04-30T04:54:10.774Z,59.50
2024-04-30T04:55:10.785Z,58.65
2024-04-30T04:56:10.770Z,60.70
2024-04-30T04:57:10.753Z,61.35
2024-04-30T04:58:10.794Z,61.52
2024-04-30T04:59:10.736Z,59.15
2024-04-30T05:00:10.717Z,55.37
2024-04-30T05:01:12.791Z,55.44
2024-04-30T05:02:10.746Z,58.71
2024-04-30T05:03:10.684Z,59.69
2024-04-30T05:04:10.742Z,66.32
2024-04-30T05:05:10.681Z,70.35
2024-04-30T05:06:10.701Z,71.29
2024-04-30T05:07:10.759Z,73.16
2024-04-30T05:08:10.751Z,71.79
2024-04-30T05:09:10.820Z,72.83
2024-04-30T05:10:10.874Z,71.67
2024-04-30T05:11:10.828Z,69.88
2024-04-30T05:12:10.838Z,69.30
2024-04-30T05:13:10.873Z,67.52
2024-04-30T05:14:10.837Z,62.27
2024-04-30T05:15:10.820Z,62.14
2024-04-30T05:16:10.914Z,59.10
2024-04-30T05:17:10.845Z,56.52
2024-04-30T05:18:10.853Z,56.27
2024-04-30T05:19:10.879Z,52.21
2024-04-30T05:20:10.883Z,51.40
2024-04-30T05:21:10.879Z,52.75
2024-04-30T05:22:10.884Z,51.69
2024-04-30T05:23:10.823Z,50.95
2024-04-30T05:24:10.986Z,50.38
2024-04-30T05:25:10.818Z,50.00
2024-04-30T05:26:10.805Z,49.85
2024-04-30T05:27:10.771Z,51.09
2024-04-30T05:28:10.762Z,51.04
2024-04-30T05:29:10.988Z,50.00
2024-04-30T05:30:10.666Z,53.88
2024-04-30T05:31:10.975Z,58.78
2024-04-30T05:32:10.715Z,68.52
2024-04-30T05:33:10.792Z,79.38
2024-04-30T05:34:11.016Z,88.86
2024-04-30T05:35:10.702Z,101.73
2024-04-30T05:36:10.713Z,117.97
2024-04-30T05:37:10.715Z,134.93
2024-04-30T05:38:10.698Z,146.80
2024-04-30T05:39:10.999Z,159.70
2024-04-30T05:40:10.709Z,168.74
2024-04-30T05:41:10.721Z,184.85
2024-04-30T05:42:10.767Z,198.06
2024-04-30T05:43:10.851Z,195.65
2024-04-30T05:44:10.851Z,197.29
2024-04-30T05:45:12.767Z,199.02
2024-04-30T05:46:11.054Z,198.32
2024-04-30T05:47:10.963Z,200.00
2024-04-30T05:48:11.010Z,200.00
2024-04-30T05:49:11.028Z,196.39
2024-04-30T05:50:10.919Z,199.91
2024-04-30T05:51:10.911Z,200.04
2024-04-30T05:52:10.952Z,200.00
2024-04-30T05:53:10.934Z,199.64
2024-04-30T05:54:10.977Z,200.00
2024-04-30T05:55:11.038Z,200.00
2024-04-30T05:56:11.059Z,200.00
2024-04-30T05:57:11.055Z,200.00
2024-04-30T05:58:11.062Z,199.80
2024-04-30T05:59:11.504Z,201.99
2024-04-30T06:00:11.023Z,200.00
2024-04-30T06:01:11.086Z,199.93
2024-04-30T06:02:11.005Z,200.00
2024-04-30T06:03:11.022Z,199.66
2024-04-30T06:04:11.026Z,199.67
2024-04-30T06:05:11.146Z,199.75
2024-04-30T06:06:10.964Z,199.59
2024-04-30T06:07:11.041Z,199.47
2024-04-30T06:08:11.035Z,199.98
2024-04-30T06:09:11.060Z,200.00
2024-04-30T06:10:11.617Z,200.00
2024-04-30T06:11:11.059Z,199.86
2024-04-30T06:12:11.010Z,199.89
2024-04-30T06:13:11.056Z,199.59
2024-04-30T06:14:10.977Z,199.90
2024-04-30T06:15:11.019Z,198.89
2024-04-30T06:16:11.035Z,199.52
2024-04-30T06:17:10.975Z,200.00
2024-04-30T06:18:11.053Z,198.54
2024-04-30T06:19:10.990Z,199.80
2024-04-30T06:20:10.917Z,200.00
2024-04-30T06:21:12.147Z,200.00
2024-04-30T06:22:10.938Z,199.77
2024-04-30T06:23:10.909Z,199.77
2024-04-30T06:24:10.931Z,198.69
2024-04-30T06:25:11.003Z,198.81
2024-04-30T06:26:10.962Z,198.72
2024-04-30T06:27:10.976Z,199.40
2024-04-30T06:28:10.968Z,199.21
2024-04-30T06:29:10.994Z,199.41
2024-04-30T06:30:11.041Z,197.80
2024-04-30T06:31:11.505Z,197.59
2024-04-30T06:32:11.011Z,190.45
2024-04-30T06:33:11.040Z,185.56
2024-04-30T06:34:11.109Z,180.20
2024-04-30T06:35:10.986Z,172.42
2024-04-30T06:36:10.962Z,170.16
2024-04-30T06:37:11.012Z,169.38
2024-04-30T06:38:10.970Z,170.87
2024-04-30T06:39:11.007Z,172.00
2024-04-30T06:40:10.972Z,171.90
2024-04-30T06:41:10.972Z,172.55
2024-04-30T06:42:10.954Z,175.57
2024-04-30T06:43:10.967Z,177.79
2024-04-30T06:44:10.934Z,178.78
2024-04-30T06:45:10.919Z,178.55
2024-04-30T06:46:11.024Z,178.60
2024-04-30T06:47:10.890Z,179.70
2024-04-30T06:48:11.023Z,180.74
2024-04-30T06:49:10.986Z,183.55
2024-04-30T06:50:10.960Z,186.21
2024-04-30T06:51:11.091Z,187.70
2024-04-30T06:52:11.049Z,189.22
2024-04-30T06:53:11.063Z,190.53
2024-04-30T06:54:11.074Z,191.31
2024-04-30T06:55:11.150Z,192.70
2024-04-30T06:56:11.134Z,193.88
2024-04-30T06:57:11.154Z,194.31
2024-04-30T06:58:11.172Z,195.33
2024-04-30T06:59:11.153Z,197.52
2024-04-30T07:00:11.187Z,198.45
2024-04-30T07:01:11.290Z,199.49
2024-04-30T07:02:11.243Z,199.93
2024-04-30T07:03:11.366Z,199.75
2024-04-30T07:04:11.630Z,200.00
2024-04-30T07:05:11.522Z,200.00
2024-04-30T07:06:11.360Z,199.67
2024-04-30T07:07:11.439Z,200.00
2024-04-30T07:08:11.408Z,200.00
2024-04-30T07:09:11.447Z,199.86
2024-04-30T07:10:11.506Z,199.50
2024-04-30T07:11:11.530Z,199.87
2024-04-30T07:12:11.518Z,199.88
2024-04-30T07:13:11.575Z,200.00
2024-04-30T07:14:11.584Z,199.11
2024-04-30T07:15:11.610Z,199.78
2024-04-30T07:16:11.669Z,199.38
2024-04-30T07:17:11.707Z,199.81
2024-04-30T07:18:11.797Z,197.04
2024-04-30T07:19:11.762Z,194.79
2024-04-30T07:20:11.758Z,192.85
2024-04-30T07:21:11.798Z,191.59
2024-04-30T07:22:11.835Z,193.75
2024-04-30T07:23:11.835Z,194.57
2024-04-30T07:24:12.031Z,196.28
2024-04-30T07:25:11.909Z,197.24
2024-04-30T07:26:12.838Z,196.22
2024-04-30T07:27:11.902Z,195.60
2024-04-30T07:28:11.924Z,194.33
2024-04-30T07:29:12.056Z,191.24
2024-04-30T07:30:11.966Z,189.42
2024-04-30T07:31:11.992Z,188.26
2024-04-30T07:32:12.023Z,185.21
2024-04-30T07:33:12.144Z,184.23
2024-04-30T07:34:12.718Z,190.02
2024-04-30T07:35:12.149Z,192.98
2024-04-30T07:36:12.192Z,194.45
2024-04-30T07:37:12.214Z,199.08
2024-04-30T07:38:12.963Z,199.95
2024-04-30T07:39:12.358Z,200.88
2024-04-30T07:40:12.336Z,204.51
2024-04-30T07:41:12.320Z,200.00
2024-04-30T07:42:12.465Z,198.75
2024-04-30T07:43:12.483Z,199.89
2024-04-30T07:44:12.514Z,200.00
2024-04-30T07:45:12.504Z,199.94
2024-04-30T07:46:12.596Z,198.36
2024-04-30T07:47:12.668Z,199.41
2024-04-30T07:48:12.695Z,199.26
2024-04-30T07:49:12.681Z,198.86
2024-04-30T07:50:12.689Z,199.63
2024-04-30T07:51:12.717Z,200.00
2024-04-30T07:52:12.781Z,198.40
2024-04-30T07:53:12.787Z,196.02
2024-04-30T07:54:12.823Z,193.52
2024-04-30T07:55:12.976Z,190.54
2024-04-30T07:56:12.874Z,188.11
2024-04-30T07:57:12.895Z,187.03
2024-04-30T07:58:12.941Z,185.44
2024-04-30T07:59:12.958Z,184.42
2024-04-30T08:00:12.998Z,182.82
2024-04-30T08:01:13.102Z,182.10
2024-04-30T08:02:14.887Z,180.23
2024-04-30T08:03:13.228Z,179.74
2024-04-30T08:04:13.222Z,176.74
2024-04-30T08:05:13.148Z,173.82
2024-04-30T08:06:18.712Z,171.74
2024-04-30T08:07:14.165Z,171.19
2024-04-30T08:08:13.131Z,169.31
2024-04-30T08:09:13.114Z,166.58
2024-04-30T08:10:13.099Z,164.01
2024-04-30T08:11:18.099Z,161.74
2024-04-30T08:12:19.667Z,160.92
2024-04-30T08:13:20.017Z,161.48
2024-04-30T08:14:19.179Z,161.46
2024-04-30T08:15:14.308Z,161.35
2024-04-30T08:16:12.993Z,159.06
2024-04-30T08:17:12.946Z,156.87
2024-04-30T08:18:12.973Z,154.82
2024-04-30T08:19:13.055Z,154.48
2024-04-30T08:20:12.829Z,152.06
2024-04-30T08:21:12.809Z,149.68
2024-04-30T08:22:12.829Z,145.61
2024-04-30T08:23:12.735Z,138.46
2024-04-30T08:24:13.055Z,134.87
2024-04-30T08:25:12.705Z,131.18
2024-04-30T08:26:12.642Z,127.71
2024-04-30T08:27:12.618Z,125.64
2024-04-30T08:28:12.637Z,124.81
2024-04-30T08:29:12.559Z,125.41
2024-04-30T08:30:12.544Z,125.81
2024-04-30T08:31:12.552Z,125.44
2024-04-30T08:32:12.475Z,122.74
2024-04-30T08:33:12.573Z,120.06
2024-04-30T08:34:13.097Z,117.22
2024-04-30T08:35:12.400Z,114.63
2024-04-30T08:36:12.369Z,111.87
2024-04-30T08:37:12.382Z,107.03
2024-04-30T08:38:12.378Z,105.02
2024-04-30T08:39:12.561Z,101.96
2024-04-30T08:40:12.287Z,98.89
2024-04-30T08:41:12.255Z,98.38
2024-04-30T08:42:12.224Z,97.23
2024-04-30T08:43:12.237Z,96.13
2024-04-30T08:44:12.186Z,95.42
2024-04-30T08:45:12.149Z,95.92
2024-04-30T08:46:12.216Z,96.58
2024-04-30T08:47:12.303Z,96.72
2024-04-30T08:48:12.106Z,96.96
2024-04-30T08:49:17.576Z,97.38
2024-04-30T08:50:16.337Z,97.42
2024-04-30T08:51:12.015Z,97.43
2024-04-30T08:52:11.947Z,96.47
2024-04-30T08:53:11.922Z,94.97
2024-04-30T08:54:11.886Z,93.80
2024-04-30T08:55:11.914Z,93.89
2024-04-30T08:56:11.857Z,92.99
2024-04-30T08:57:11.831Z,92.19
2024-04-30T08:58:11.822Z,92.62
2024-04-30T08:59:11.769Z,93.28
2024-04-30T09:00:11.721Z,93.07
2024-04-30T09:01:11.794Z,92.98
2024-04-30T09:02:11.679Z,91.10
2024-04-30T09:03:11.654Z,88.79
2024-04-30T09:04:11.779Z,87.77
2024-04-30T09:05:11.621Z,86.97
2024-04-30T09:06:11.622Z,82.92
2024-04-30T09:07:11.734Z,81.24
2024-04-30T09:08:11.668Z,81.00
2024-04-30T09:09:11.658Z,80.19
2024-04-30T09:10:11.761Z,78.20
2024-04-30T09:11:11.782Z,77.29
2024-04-30T09:12:11.807Z,75.73
2024-04-30T09:13:11.798Z,73.51
2024-04-30T09:14:11.657Z,70.98
2024-04-30T09:15:11.641Z,70.11
2024-04-30T09:16:11.642Z,67.90
2024-04-30T09:17:11.709Z,68.04
2024-04-30T09:18:11.753Z,64.31
2024-04-30T09:19:11.727Z,58.83
2024-04-30T09:20:11.653Z,54.67
2024-04-30T09:21:17.059Z,52.47
2024-04-30T09:22:12.689Z,52.47
2024-04-30T09:23:11.618Z,51.86
2024-04-30T09:24:11.595Z,50.82
2024-04-30T09:25:11.599Z,48.63
2024-04-30T09:26:11.543Z,47.06
2024-04-30T09:27:11.529Z,50.72
2024-04-30T09:28:11.519Z,50.68
2024-04-30T09:29:11.587Z,50.63
2024-04-30T09:30:11.467Z,50.00
2024-04-30T09:31:11.588Z,51.33
2024-04-30T09:32:11.415Z,53.05
2024-04-30T09:33:11.653Z,52.13
2024-04-30T09:34:11.398Z,50.83
2024-04-30T09:35:11.338Z,50.37
2024-04-30T09:36:13.498Z,49.74
2024-04-30T09:37:11.314Z,50.00
2024-04-30T09:38:11.269Z,50.42
2024-04-30T09:39:11.260Z,50.23
2024-04-30T09:40:11.228Z,50.43
2024-04-30T09:41:11.184Z,50.23
2024-04-30T09:42:11.159Z,50.73
2024-04-30T09:43:11.145Z,51.78
2024-04-30T09:44:11.131Z,51.61
2024-04-30T09:45:11.075Z,52.02
2024-04-30T09:46:11.171Z,53.33
2024-04-30T09:47:11.159Z,53.50
2024-04-30T09:48:10.994Z,53.62
2024-04-30T09:49:11.020Z,53.72
2024-04-30T09:50:10.947Z,52.81
2024-04-30T09:51:10.918Z,53.33
2024-04-30T09:52:10.951Z,53.46
2024-04-30T09:53:10.896Z,53.22
2024-04-30T09:54:10.847Z,52.93
2024-04-30T09:55:10.837Z,53.00
2024-04-30T09:56:10.789Z,53.81
2024-04-30T09:57:10.755Z,54.60
2024-04-30T09:58:10.769Z,55.12
2024-04-30T09:59:11.095Z,55.65
2024-04-30T10:00:10.728Z,54.64
2024-04-30T10:01:10.748Z,52.57
2024-04-30T10:02:10.639Z,51.79
2024-04-30T10:03:10.682Z,51.37
2024-04-30T10:04:10.631Z,50.28
2024-04-30T10:05:10.613Z,50.39
2024-04-30T10:06:10.492Z,50.10
2024-04-30T10:07:10.482Z,50.17
2024-04-30T10:08:10.430Z,50.22
2024-04-30T10:09:10.430Z,50.00
2024-04-30T10:10:10.407Z,50.18
2024-04-30T10:11:10.425Z,51.83
2024-04-30T10:12:10.316Z,50.10
2024-04-30T10:13:10.331Z,50.07
2024-04-30T10:14:10.260Z,50.00
2024-04-30T10:15:10.229Z,50.27
2024-04-30T10:16:10.303Z,50.78
2024-04-30T10:17:10.373Z,50.25
2024-04-30T10:18:10.202Z,50.87
2024-04-30T10:19:10.165Z,51.15
2024-04-30T10:20:10.111Z,51.02
2024-04-30T10:21:10.086Z,51.07
2024-04-30T10:22:10.123Z,51.02
2024-04-30T10:23:10.024Z,50.36
2024-04-30T10:24:10.123Z,50.00
2024-04-30T10:25:10.024Z,51.74
2024-04-30T10:26:09.957Z,52.72
2024-04-30T10:27:09.910Z,53.26
2024-04-30T10:28:09.923Z,55.02
2024-04-30T10:29:09.873Z,56.10
2024-04-30T10:30:09.832Z,56.32
2024-04-30T10:31:09.903Z,56.61
2024-04-30T10:32:09.793Z,56.18
2024-04-30T10:33:09.856Z,56.76
2024-04-30T10:34:10.184Z,57.62
2024-04-30T10:35:09.715Z,58.22
2024-04-30T10:36:09.702Z,57.17
2024-04-30T10:37:09.712Z,57.60
2024-04-30T10:38:09.655Z,57.24
2024-04-30T10:39:09.632Z,59.00
2024-04-30T10:40:09.651Z,59.71
2024-04-30T10:41:09.607Z,60.47
2024-04-30T10:42:09.568Z,60.10
2024-04-30T10:43:09.583Z,58.75
2024-04-30T10:44:09.545Z,58.36
2024-04-30T10:45:09.492Z,58.11
2024-04-30T10:46:09.477Z,57.81
2024-04-30T10:47:09.473Z,57.60
2024-04-30T10:48:09.532Z,58.90
2024-04-30T10:49:10.752Z,58.75
2024-04-30T10:50:18.203Z,56.87
2024-04-30T10:51:10.481Z,56.15
2024-04-30T10:52:09.477Z,55.09
2024-04-30T10:53:09.411Z,54.05
2024-04-30T10:54:09.375Z,52.61
2024-04-30T10:55:09.379Z,49.76
2024-04-30T10:56:09.312Z,50.69
2024-04-30T10:57:09.283Z,50.12
2024-04-30T10:58:09.255Z,50.04
2024-04-30T10:59:09.203Z,51.45
2024-04-30T11:00:09.178Z,50.24
2024-04-30T11:01:09.192Z,49.91
2024-04-30T11:02:09.109Z,50.60
2024-04-30T11:03:09.140Z,50.20
2024-04-30T11:04:09.226Z,50.42
2024-04-30T11:05:09.263Z,50.65
2024-04-30T11:06:09.173Z,50.60
2024-04-30T11:07:09.219Z,50.00
2024-04-30T11:08:09.209Z,51.00
2024-04-30T11:09:09.270Z,51.01
2024-04-30T11:10:09.736Z,52.04
2024-04-30T11:11:09.324Z,51.38
2024-04-30T11:12:09.300Z,50.15
2024-04-30T11:13:09.334Z,51.38
2024-04-30T11:14:09.320Z,50.14
2024-04-30T11:15:09.627Z,51.16
2024-04-30T11:16:14.256Z,50.61
2024-04-30T11:17:10.339Z,50.63
2024-04-30T11:18:09.372Z,50.90
2024-04-30T11:19:11.227Z,50.49
2024-04-30T11:20:09.625Z,51.53
2024-04-30T11:21:09.219Z,51.43
2024-04-30T11:22:09.191Z,52.18
2024-04-30T11:23:09.128Z,51.93
2024-04-30T11:24:09.097Z,51.90
2024-04-30T11:25:09.139Z,52.22
2024-04-30T11:26:09.020Z,52.02
2024-04-30T11:27:08.978Z,51.55
2024-04-30T11:28:08.951Z,51.44
2024-04-30T11:29:23.295Z,50.75
2024-04-30T11:30:09.883Z,50.79
2024-04-30T11:31:08.862Z,50.83
2024-04-30T11:32:08.883Z,50.51
2024-04-30T11:33:08.866Z,50.38
2024-04-30T11:34:08.753Z,50.28
2024-04-30T11:35:08.710Z,50.49
2024-04-30T11:36:08.676Z,50.19
2024-04-30T11:37:08.694Z,50.39
2024-04-30T11:38:08.645Z,50.37
2024-04-30T11:39:09.873Z,50.23
2024-04-30T11:40:08.569Z,50.60
2024-04-30T11:41:08.502Z,50.81
2024-04-30T11:43:08.499Z,50.51
2024-04-30T11:44:08.387Z,49.92
2024-04-30T11:45:08.356Z,49.82
2024-04-30T11:46:08.344Z,49.22
2024-04-30T11:47:08.351Z,48.87
2024-04-30T11:48:08.316Z,50.86
2024-04-30T11:49:08.227Z,50.59
2024-04-30T11:50:08.205Z,51.23
2024-04-30T11:51:08.117Z,50.64
2024-04-30T11:52:08.107Z,50.70
2024-04-30T11:53:08.256Z,51.14
2024-04-30T11:54:07.999Z,50.58
2024-04-30T11:55:08.024Z,50.83
2024-04-30T11:56:07.939Z,50.07
2024-04-30T11:57:07.888Z,49.93
2024-04-30T11:58:07.937Z,50.10
2024-04-30T11:59:07.822Z,51.32
2024-04-30T12:00:07.789Z,50.23
2024-04-30T12:01:07.854Z,50.04
2024-04-30T12:02:07.709Z,50.51
2024-04-30T12:03:07.665Z,50.63
2024-04-30T12:04:07.628Z,49.87
2024-04-30T12:05:07.738Z,50.63
2024-04-30T12:06:07.544Z,50.41
2024-04-30T12:07:07.557Z,50.60
2024-04-30T12:08:07.457Z,50.00
2024-04-30T12:09:07.431Z,50.68
2024-04-30T12:10:07.410Z,51.11
2024-04-30T12:11:07.387Z,50.53
2024-04-30T12:12:07.295Z,50.01
2024-04-30T12:13:07.292Z,50.82
2024-04-30T12:14:07.278Z,50.00
2024-04-30T12:15:07.366Z,50.88
2024-04-30T12:16:07.377Z,50.78
2024-04-30T12:17:07.436Z,51.30
2024-04-30T12:18:07.431Z,51.25
2024-04-30T12:19:07.339Z,50.92
2024-04-30T12:20:07.682Z,51.24
2024-04-30T12:21:07.388Z,51.70
2024-04-30T12:22:07.452Z,52.02
2024-04-30T12:23:07.436Z,51.50
2024-04-30T12:24:07.470Z,50.76
2024-04-30T12:25:07.483Z,51.68
2024-04-30T12:26:07.461Z,51.51
2024-04-30T12:27:07.450Z,51.53
2024-04-30T12:28:07.479Z,50.85
2024-04-30T12:29:07.505Z,51.69
2024-04-30T12:30:07.497Z,51.53
2024-04-30T12:31:07.523Z,53.04
2024-04-30T12:32:11.201Z,52.26
2024-04-30T12:33:07.532Z,52.32
2024-04-30T12:34:07.489Z,51.83
2024-04-30T12:35:07.387Z,52.25
2024-04-30T12:36:07.360Z,51.80
2024-04-30T12:37:07.336Z,52.69
2024-04-30T12:38:07.271Z,52.58
2024-04-30T12:39:07.229Z,51.34
2024-04-30T12:40:08.350Z,51.32
2024-04-30T12:41:07.159Z,51.92
2024-04-30T12:42:07.123Z,51.35
2024-04-30T12:43:07.119Z,52.76
2024-04-30T12:44:07.073Z,52.04
2024-04-30T12:45:07.028Z,51.83
2024-04-30T12:46:06.993Z,52.32
2024-04-30T12:47:06.948Z,51.61